createdAt,value
2023-01-10T00:00:35.076Z,101372.59
2023-01-10T00:03:02.401Z,101385.75
2023-01-10T00:05:28.920Z,101387.56
2023-01-10T00:07:55.502Z,101394.75
2023-01-10T00:10:22.234Z,101400.88
2023-01-10T00:13:07.367Z,101401.28
2023-01-10T00:15:34.988Z,101401.28
2023-01-10T00:18:01.620Z,101428.16
2023-01-10T00:20:28.201Z,101439.56
2023-01-10T00:22:54.934Z,101439.28
2023-01-10T00:25:21.804Z,101451.19
2023-01-10T00:28:01.871Z,101435.13
2023-01-10T00:30:28.836Z,101445.22
2023-01-10T00:32:56.738Z,101453.41
2023-01-10T00:35:23.244Z,101455.34
2023-01-10T00:37:49.739Z,101455.19
2023-01-10T00:40:16.465Z,101449.94
2023-01-10T00:43:06.038Z,101452.72
2023-01-10T00:45:32.612Z,101460.19
2023-01-10T00:47:59.084Z,101451.31
2023-01-10T00:50:25.571Z,101457.19
2023-01-10T00:52:52.004Z,101453.56
2023-01-10T00:55:18.522Z,101459.53
2023-01-10T00:57:45.019Z,101453.28
2023-01-10T01:00:12.248Z,101464.38
2023-01-10T01:02:38.829Z,101470.50
2023-01-10T01:05:06.079Z,101469.66
2023-01-10T01:07:32.535Z,101480.19
2023-01-10T01:10:17.687Z,101479.38
2023-01-10T01:12:44.192Z,101483.50
2023-01-10T01:15:11.441Z,101472.16
2023-01-10T01:17:38.045Z,101485.06
2023-01-10T01:20:04.981Z,101484.50
2023-01-10T01:22:31.524Z,101501.00
2023-01-10T01:24:58.008Z,101508.22
2023-01-10T01:27:24.508Z,101512.38
2023-01-10T01:29:50.925Z,101504.31
2023-01-10T01:32:17.511Z,101516.13
2023-01-10T01:34:44.190Z,101513.22
2023-01-10T01:37:10.692Z,101518.50
2023-01-10T01:39:37.176Z,101517.50
2023-01-10T01:42:05.562Z,101516.81
2023-01-10T01:44:36.095Z,101521.13
2023-01-10T01:47:07.672Z,101534.59
2023-01-10T01:49:40.349Z,101524.31
2023-01-10T01:52:17.498Z,101529.44
2023-01-10T01:54:44.051Z,101525.41
2023-01-10T01:57:14.844Z,101527.34
2023-01-10T01:59:45.123Z,101531.41
2023-01-10T02:02:19.905Z,101538.63
2023-01-10T02:04:52.111Z,101541.78
2023-01-10T02:07:18.965Z,101538.16
2023-01-10T02:10:00.566Z,101545.13
2023-01-10T02:12:29.313Z,101532.31
2023-01-10T02:14:57.105Z,101540.09
2023-01-10T02:17:23.567Z,101541.06
2023-01-10T02:19:56.018Z,101551.63
2023-01-10T02:23:00.248Z,101547.31
2023-01-10T02:26:11.613Z,101547.84
2023-01-10T02:29:24.208Z,101551.34
2023-01-10T02:32:16.146Z,101552.88
2023-01-10T02:35:21.116Z,101564.50
2023-01-10T02:38:18.051Z,101563.44
2023-01-10T02:40:55.877Z,101568.41
2023-01-10T02:43:34.090Z,101558.84
2023-01-10T02:46:12.066Z,101561.22
2023-01-10T02:48:38.614Z,101572.31
2023-01-10T02:51:17.352Z,101566.19
2023-01-10T02:53:48.848Z,101575.66
2023-01-10T02:56:42.955Z,101574.41
2023-01-10T02:59:31.368Z,101566.50
2023-01-10T03:02:21.923Z,101583.97
2023-01-10T03:04:48.413Z,101585.66
2023-01-10T03:07:18.428Z,101590.78
2023-01-10T03:10:08.741Z,101595.91
2023-01-10T03:12:42.927Z,101586.47
2023-01-10T03:15:13.502Z,101605.63
2023-01-10T03:17:43.634Z,101605.63
2023-01-10T03:20:11.311Z,101603.94
2023-01-10T03:22:40.465Z,101601.47
2023-01-10T03:25:12.668Z,101612.00
2023-01-10T03:27:43.977Z,101624.75
2023-01-10T03:30:26.140Z,101618.69
2023-01-10T03:32:55.033Z,101616.03
2023-01-10T03:35:26.120Z,101627.97
2023-01-10T03:38:23.668Z,101622.44
2023-01-10T03:41:01.717Z,101627.69
2023-01-10T03:44:13.077Z,101635.34
2023-01-10T03:46:49.418Z,101641.44
2023-01-10T03:49:18.358Z,101629.66
2023-01-10T03:51:45.429Z,101640.47
2023-01-10T03:54:14.986Z,101650.03
2023-01-10T03:56:52.191Z,101650.03
2023-01-10T03:59:26.162Z,101653.66
2023-01-10T04:01:53.606Z,101651.97
2023-01-10T04:04:20.235Z,101652.25
2023-01-10T04:06:46.772Z,101651.69
2023-01-10T04:09:13.549Z,101658.19
2023-01-10T04:11:40.123Z,101670.13
2023-01-10T04:14:06.732Z,101664.28
2023-01-10T04:16:33.347Z,101659.50
2023-01-10T04:18:59.854Z,101661.34
2023-01-10T04:21:26.397Z,101666.59
2023-01-10T04:23:53.348Z,101676.19
2023-01-10T04:26:19.891Z,101679.91
2023-01-10T04:28:46.387Z,101673.22
2023-01-10T04:31:12.941Z,101688.22
2023-01-10T04:33:40.908Z,101693.63
2023-01-10T04:36:07.819Z,101685.44
2023-01-10T04:38:34.408Z,101698.72
2023-01-10T04:41:00.888Z,101706.88
2023-01-10T04:43:27.424Z,101701.44
2023-01-10T04:45:53.932Z,101703.38
2023-01-10T04:48:20.506Z,101700.47
2023-01-10T04:50:50.940Z,101706.97
2023-01-10T04:53:17.979Z,101708.88
2023-01-10T04:55:44.767Z,101726.47
2023-01-10T04:58:11.341Z,101728.81
2023-01-10T05:00:38.126Z,101724.78
2023-01-10T05:03:04.847Z,101726.00
2023-01-10T05:05:32.081Z,101726.25
2023-01-10T05:07:58.625Z,101727.34
2023-01-10T05:10:25.417Z,101728.69
2023-01-10T05:12:51.959Z,101705.53
2023-01-10T05:15:20.972Z,101724.09
2023-01-10T05:17:47.428Z,101724.22
2023-01-10T05:20:14.108Z,101731.91
2023-01-10T05:22:40.533Z,101754.88
2023-01-10T05:25:07.186Z,101758.63
2023-01-10T05:27:33.679Z,101750.84
2023-01-10T05:30:00.203Z,101758.19
2023-01-10T05:32:29.930Z,101774.78
2023-01-10T05:34:57.172Z,101784.50
2023-01-10T05:37:23.655Z,101765.81
2023-01-10T05:39:50.151Z,101764.47
2023-01-10T05:42:16.647Z,101779.75
2023-01-10T05:44:43.157Z,101783.78
2023-01-10T05:47:09.678Z,101788.44
2023-01-10T05:49:36.276Z,101789.69
2023-01-10T05:52:02.807Z,101790.16
2023-01-10T05:54:29.825Z,101793.94
2023-01-10T05:56:56.721Z,101796.88
2023-01-10T05:59:30.381Z,101795.66
2023-01-10T06:01:57.064Z,101791.69
2023-01-10T06:04:23.731Z,101792.13
2023-01-10T06:06:50.586Z,101792.69
2023-01-10T06:09:17.027Z,101790.75
2023-01-10T06:11:43.486Z,101799.81
2023-01-10T06:14:10.238Z,101804.81
2023-01-10T06:16:36.817Z,101794.28
2023-01-10T06:19:03.363Z,101797.94
2023-01-10T06:21:29.897Z,101803.06
2023-01-10T06:23:56.407Z,101800.06
2023-01-10T06:26:22.954Z,101810.38
2023-01-10T06:28:49.451Z,101821.63
2023-01-10T06:31:16.045Z,101824.00
2023-01-10T06:33:44.159Z,101822.06
2023-01-10T06:36:11.233Z,101823.72
2023-01-10T06:38:37.855Z,101832.19
2023-01-10T06:41:13.221Z,101834.00
2023-01-10T06:43:41.786Z,101829.28
2023-01-10T06:46:10.005Z,101841.50
2023-01-10T06:48:37.865Z,101841.38
2023-01-10T06:51:05.757Z,101833.75
2023-01-10T06:53:32.536Z,101844.03
2023-01-10T06:55:59.010Z,101849.84
2023-01-10T06:58:25.571Z,101851.41
2023-01-10T07:00:52.336Z,101848.78
2023-01-10T07:03:18.913Z,101854.03
2023-01-10T07:05:45.525Z,101853.34
2023-01-10T07:08:12.145Z,101861.00
2023-01-10T07:10:41.786Z,101859.16
2023-01-10T07:13:09.323Z,101860.13
2023-01-10T07:15:36.535Z,101850.44
2023-01-10T07:18:03.376Z,101861.97
2023-01-10T07:20:29.991Z,101869.59
2023-01-10T07:22:59.028Z,101878.75
2023-01-10T07:25:27.839Z,101881.50
2023-01-10T07:27:57.502Z,101891.94
2023-01-10T07:30:25.506Z,101901.78
2023-01-10T07:32:58.603Z,101910.66
2023-01-10T07:35:25.572Z,101921.03
2023-01-10T07:37:52.245Z,101916.63
2023-01-10T07:40:18.901Z,101925.50
2023-01-10T07:42:45.403Z,101921.47
2023-01-10T07:45:11.954Z,101930.88
2023-01-10T07:47:38.419Z,101927.53
2023-01-10T07:50:05.347Z,101931.41
2023-01-10T07:52:33.496Z,101928.31
2023-01-10T07:54:59.991Z,101930.13
2023-01-10T07:57:26.618Z,101929.28
2023-01-10T07:59:53.129Z,101935.53
2023-01-10T08:02:19.724Z,101938.41
2023-01-10T08:04:46.250Z,101934.97
2023-01-10T08:07:12.731Z,101940.50
2023-01-10T08:09:39.244Z,101945.75
2023-01-10T08:12:05.930Z,101949.09
2023-01-10T08:14:32.451Z,101947.66
2023-01-10T08:16:58.944Z,101963.59
2023-01-10T08:19:25.470Z,101952.47
2023-01-10T08:21:52.009Z,101954.50
2023-01-10T08:24:18.476Z,101940.06
2023-01-10T08:26:44.929Z,101955.47
2023-01-10T08:29:11.371Z,101953.25
2023-01-10T08:31:40.196Z,101958.38
2023-01-10T08:34:06.722Z,101961.97
2023-01-10T08:36:33.296Z,101952.13
2023-01-10T08:38:59.717Z,101943.53
2023-01-10T08:41:26.188Z,101957.28
2023-01-10T08:43:52.649Z,101955.63
2023-01-10T08:46:20.359Z,101949.00
2023-01-10T08:48:50.138Z,101944.81
2023-01-10T08:51:16.754Z,101933.31
2023-01-10T08:53:43.301Z,101940.97
2023-01-10T08:56:10.539Z,101939.03
2023-01-10T08:58:37.228Z,101937.13
2023-01-10T09:01:05.335Z,101937.94
2023-01-10T09:03:31.868Z,101931.84
2023-01-10T09:06:02.060Z,101931.84
2023-01-10T09:08:28.548Z,101925.59
2023-01-10T09:10:57.902Z,101922.75
2023-01-10T09:13:24.401Z,101945.09
2023-01-10T09:15:51.850Z,101939.28
2023-01-10T09:18:21.285Z,101933.75
2023-01-10T09:20:49.245Z,101939.38
2023-01-10T09:23:19.989Z,101941.91
2023-01-10T09:25:48.042Z,101942.47
2023-01-10T09:28:15.215Z,101937.19
2023-01-10T09:30:41.803Z,101935.41
2023-01-10T09:33:08.683Z,101939.72
2023-01-10T09:35:37.936Z,101928.31
2023-01-10T09:38:06.095Z,101928.47
2023-01-10T09:41:08.123Z,101926.41
2023-01-10T09:43:46.508Z,101932.63
2023-01-10T09:46:16.798Z,101928.22
2023-01-10T09:48:55.107Z,101935.72
2023-01-10T09:51:39.211Z,101932.97
2023-01-10T09:54:13.128Z,101946.97
2023-01-10T09:56:40.702Z,101932.97
2023-01-10T09:59:17.281Z,101936.41
2023-01-10T10:01:46.618Z,101943.88
2023-01-10T10:04:25.882Z,101957.22
2023-01-10T10:06:53.386Z,101943.31
2023-01-10T10:09:25.205Z,101935.66
2023-01-10T10:12:10.537Z,101931.09
2023-01-10T10:15:07.663Z,101924.97
2023-01-10T10:17:41.867Z,101930.59
2023-01-10T10:20:38.886Z,101920.59
2023-01-10T10:23:25.572Z,101918.13
2023-01-10T10:26:17.645Z,101921.81
2023-01-10T10:29:01.284Z,101917.84
2023-01-10T10:31:41.722Z,101926.22
2023-01-10T10:34:36.556Z,101915.91
2023-01-10T10:37:17.291Z,101910.38
2023-01-10T10:40:06.461Z,101906.19
2023-01-10T10:42:39.765Z,101902.84
2023-01-10T10:45:08.757Z,101909.09
2023-01-10T10:47:38.967Z,101892.44
2023-01-10T10:50:14.343Z,101896.50
2023-01-10T10:52:42.577Z,101890.53
2023-01-10T10:55:23.408Z,101878.03
2023-01-10T10:57:59.992Z,101880.69
2023-01-10T11:00:28.638Z,101877.88
2023-01-10T11:03:05.399Z,101873.72
2023-01-10T11:05:37.403Z,101867.31
2023-01-10T11:08:16.266Z,101860.09
2023-01-10T11:10:47.352Z,101865.81
2023-01-10T11:13:30.860Z,101859.00
2023-01-10T11:15:58.028Z,101854.84
2023-01-10T11:18:27.565Z,101855.53
2023-01-10T11:21:01.651Z,101847.63
2023-01-10T11:23:49.043Z,101849.75
2023-01-10T11:26:40.196Z,101858.72
2023-01-10T11:29:08.261Z,101847.38
2023-01-10T11:31:37.071Z,101848.88
2023-01-10T11:34:08.416Z,101848.34
2023-01-10T11:36:54.912Z,101839.63
2023-01-10T11:39:21.468Z,101838.41
2023-01-10T11:41:49.302Z,101827.44
2023-01-10T11:44:25.420Z,101819.41
2023-01-10T11:47:02.497Z,101817.72
2023-01-10T11:49:35.466Z,101835.78
2023-01-10T11:52:13.333Z,101829.69
2023-01-10T11:54:41.106Z,101827.59
2023-01-10T11:57:16.356Z,101824.00
2023-01-10T11:59:54.493Z,101832.50
2023-01-10T12:02:26.305Z,101817.63
2023-01-10T12:04:55.990Z,101814.03
2023-01-10T12:07:22.758Z,101810.41
2023-01-10T12:10:01.315Z,101804.03
2023-01-10T12:12:32.431Z,101804.19
2023-01-10T12:15:20.179Z,101786.53
2023-01-10T12:17:47.147Z,101788.06
2023-01-10T12:20:15.071Z,101776.66
2023-01-10T12:22:45.633Z,101775.44
2023-01-10T12:25:18.211Z,101765.28
2023-01-10T12:27:48.974Z,101758.78
2023-01-10T12:30:52.818Z,101751.97
2023-01-10T12:33:27.562Z,101748.91
2023-01-10T12:36:02.324Z,101748.09
2023-01-10T12:39:05.263Z,101739.19
2023-01-10T12:42:03.885Z,101740.72
2023-01-10T12:44:42.747Z,101738.66
2023-01-10T12:47:22.243Z,101739.47
2023-01-10T12:49:55.880Z,101736.81
2023-01-10T12:52:33.503Z,101731.53
2023-01-10T12:55:00.725Z,101724.75
2023-01-10T12:57:39.680Z,101708.06
2023-01-10T13:00:15.555Z,101720.19
2023-01-10T13:02:46.220Z,101716.41
2023-01-10T13:05:22.012Z,101698.78
2023-01-10T13:07:51.633Z,101696.97
2023-01-10T13:10:21.990Z,101697.81
2023-01-10T13:12:57.886Z,101686.28
2023-01-10T13:15:30.517Z,101683.06
2023-01-10T13:18:05.531Z,101674.19
2023-01-10T13:20:40.713Z,101676.81
2023-01-10T13:23:34.185Z,101667.78
2023-01-10T13:26:09.281Z,101655.25
2023-01-10T13:28:39.711Z,101652.50
2023-01-10T13:31:28.783Z,101657.78
2023-01-10T13:34:03.157Z,101646.09
2023-01-10T13:36:37.686Z,101639.25
2023-01-10T13:39:12.075Z,101635.63
2023-01-10T13:42:15.796Z,101629.09
2023-01-10T13:45:00.415Z,101630.63
2023-01-10T13:47:39.381Z,101641.19
2023-01-10T13:50:24.012Z,101639.38
2023-01-10T13:53:02.930Z,101632.13
2023-01-10T13:55:29.458Z,101624.09
2023-01-10T13:58:01.598Z,101616.28
2023-01-10T14:00:53.044Z,101622.13
2023-01-10T14:03:44.000Z,101608.78
2023-01-10T14:06:19.697Z,101613.06
2023-01-10T14:09:25.780Z,101600.16
2023-01-10T14:11:57.899Z,101605.84
2023-01-10T14:14:31.158Z,101608.66
2023-01-10T14:17:26.515Z,101591.81
2023-01-10T14:20:16.454Z,101585.44
2023-01-10T14:23:07.690Z,101589.34
2023-01-10T14:25:38.081Z,101587.41
2023-01-10T14:28:16.124Z,101576.75
2023-01-10T14:30:42.815Z,101575.53
2023-01-10T14:33:17.734Z,101564.69
2023-01-10T14:35:47.564Z,101553.75
2023-01-10T14:38:23.594Z,101547.78
2023-01-10T14:40:52.641Z,101526.41
2023-01-10T14:43:22.893Z,101540.44
2023-01-10T14:46:03.561Z,101537.09
2023-01-10T14:48:33.339Z,101527.81
2023-01-10T14:51:20.830Z,101521.03
2023-01-10T14:53:55.973Z,101522.41
2023-01-10T14:56:43.961Z,101503.94
2023-01-10T14:59:27.289Z,101497.00
2023-01-10T15:02:29.563Z,101493.84
2023-01-10T15:05:02.041Z,101476.50
2023-01-10T15:07:28.924Z,101476.63
2023-01-10T15:10:05.636Z,101455.69
2023-01-10T15:12:34.737Z,101466.94
2023-01-10T15:15:15.633Z,101459.28
2023-01-10T15:17:44.476Z,101451.38
2023-01-10T15:20:19.725Z,101446.41
2023-01-10T15:22:56.166Z,101443.88
2023-01-10T15:25:38.925Z,101449.16
2023-01-10T15:28:15.337Z,101431.81
2023-01-10T15:30:42.823Z,101423.06
2023-01-10T15:33:29.148Z,101416.00
2023-01-10T15:35:58.035Z,101412.53
2023-01-10T15:38:30.175Z,101415.16
2023-01-10T15:41:02.468Z,101406.56
2023-01-10T15:43:33.463Z,101400.47
2023-01-10T15:46:01.984Z,101391.88
2023-01-10T15:48:37.321Z,101400.47
2023-01-10T15:51:29.633Z,101392.56
2023-01-10T15:54:04.099Z,101389.22
2023-01-10T15:56:49.720Z,101381.59
2023-01-10T15:59:23.709Z,101378.97
2023-01-10T16:02:00.294Z,101373.53
2023-01-10T16:04:27.441Z,101371.88
2023-01-10T16:07:07.053Z,101372.72
2023-01-10T16:09:34.069Z,101365.22
2023-01-10T16:12:19.429Z,101346.09
2023-01-10T16:14:45.939Z,101359.13
2023-01-10T16:17:12.651Z,101341.94
2023-01-10T16:19:39.186Z,101342.75
2023-01-10T16:22:05.890Z,101334.16
2023-01-10T16:24:35.754Z,101318.63
2023-01-10T16:27:06.119Z,101310.03
2023-01-10T16:29:33.759Z,101299.50
2023-01-10T16:32:00.361Z,101307.41
2023-01-10T16:34:26.872Z,101298.97
2023-01-10T16:36:53.370Z,101280.66
2023-01-10T16:39:22.551Z,101283.28
2023-01-10T16:42:07.608Z,101284.13
2023-01-10T16:44:34.720Z,101278.19
2023-01-10T16:47:01.931Z,101265.97
2023-01-10T16:49:28.489Z,101252.91
2023-01-10T16:51:57.358Z,101251.13
2023-01-10T16:54:25.846Z,101265.13
2023-01-10T16:56:52.320Z,101250.16
2023-01-10T16:59:20.321Z,101259.03
2023-01-10T17:01:52.839Z,101254.75
2023-01-10T17:04:29.916Z,101246.00
2023-01-10T17:06:56.813Z,101227.69
2023-01-10T17:09:24.877Z,101238.25
2023-01-10T17:11:57.554Z,101233.50
2023-01-10T17:14:24.079Z,101235.31
2023-01-10T17:16:50.728Z,101226.44
2023-01-10T17:19:17.226Z,101227.41
2023-01-10T17:21:43.735Z,101224.75
2023-01-10T17:24:10.613Z,101210.75
2023-01-10T17:26:37.242Z,101224.75
2023-01-10T17:29:03.711Z,101227.41
2023-01-10T17:31:30.381Z,101222.13
2023-01-10T17:33:57.207Z,101206.44
2023-01-10T17:36:28.584Z,101206.44
2023-01-10T17:38:56.440Z,101193.94
2023-01-10T17:41:23.165Z,101184.09
2023-01-10T17:43:49.771Z,101194.63
2023-01-10T17:46:17.805Z,101190.59
2023-01-10T17:48:45.087Z,101186.81
2023-01-10T17:51:13.137Z,101176.13
2023-01-10T17:53:40.537Z,101170.84
2023-01-10T17:56:07.747Z,101171.66
2023-01-10T17:58:34.400Z,101169.59
2023-01-10T18:01:01.063Z,101172.59
2023-01-10T18:03:27.857Z,101160.22
2023-01-10T18:05:56.937Z,101146.75
2023-01-10T18:08:24.238Z,101160.91
2023-01-10T18:10:51.200Z,101151.03
2023-01-10T18:13:20.157Z,101159.31
2023-01-10T18:15:48.672Z,101141.41
2023-01-10T18:18:15.637Z,101129.88
2023-01-10T18:20:43.456Z,101121.00
2023-01-10T18:23:24.908Z,101131.91
2023-01-10T18:25:59.905Z,101121.88
2023-01-10T18:28:40.516Z,101132.13
2023-01-10T18:31:14.141Z,101120.59
2023-01-10T18:33:40.780Z,101128.03
2023-01-10T18:36:14.112Z,101127.72
2023-01-10T18:38:40.613Z,101125.63
2023-01-10T18:41:07.100Z,101120.03
2023-01-10T18:43:33.627Z,101113.91
2023-01-10T18:46:05.829Z,101108.31
2023-01-10T18:48:32.609Z,101117.75
2023-01-10T18:51:00.490Z,101094.00
2023-01-10T18:53:27.608Z,101107.72
2023-01-10T18:55:59.220Z,101108.94
2023-01-10T18:58:28.291Z,101113.06
2023-01-10T19:00:54.941Z,101111.94
2023-01-10T19:03:21.740Z,101116.72
2023-01-10T19:05:48.245Z,101095.47
2023-01-10T19:08:14.744Z,101094.53
2023-01-10T19:11:11.392Z,101089.75
2023-01-10T19:13:31.825Z,101100.66
2023-01-10T19:16:37.076Z,101093.09
2023-01-10T19:19:06.520Z,101091.31
2023-01-10T19:21:34.233Z,101090.50
2023-01-10T19:24:03.673Z,101088.53
2023-01-10T19:26:30.944Z,101088.22
2023-01-10T19:28:57.513Z,101083.97
2023-01-10T19:31:27.057Z,101087.28
2023-01-10T19:33:54.673Z,101079.34
2023-01-10T19:36:23.234Z,101065.00
2023-01-10T19:38:55.639Z,101066.03
2023-01-10T19:41:22.684Z,101058.78
2023-01-10T19:43:56.687Z,101057.28
2023-01-10T19:46:23.300Z,101057.81
2023-01-10T19:48:49.888Z,101050.53
2023-01-10T19:51:16.443Z,101044.94
2023-01-10T19:53:45.446Z,101051.88
2023-01-10T19:56:13.793Z,101045.44
2023-01-10T19:58:40.345Z,101042.47
2023-01-10T20:01:13.321Z,101040.66
2023-01-10T20:03:42.320Z,101045.63
2023-01-10T20:06:16.829Z,101040.69
2023-01-10T20:08:44.545Z,101038.84
2023-01-10T20:11:11.115Z,101039.66
2023-01-10T20:13:40.100Z,101032.25
2023-01-10T20:16:07.187Z,101035.03
2023-01-10T20:18:33.743Z,101022.66
2023-01-10T20:21:04.668Z,101022.34
2023-01-10T20:23:31.394Z,101013.91
2023-01-10T20:26:06.505Z,101019.03
2023-01-10T20:28:34.377Z,101020.38
2023-01-10T20:31:01.127Z,101006.81
2023-01-10T20:33:27.894Z,101005.50
2023-01-10T20:36:05.962Z,101005.50
2023-01-10T20:38:34.282Z,101013.09
2023-01-10T20:41:06.016Z,100999.88
2023-01-10T20:43:33.095Z,100992.09
2023-01-10T20:46:11.191Z,100988.78
2023-01-10T20:48:39.303Z,101002.84
2023-01-10T20:51:06.664Z,100994.41
2023-01-10T20:53:33.302Z,100985.66
2023-01-10T20:56:07.675Z,100982.16
2023-01-10T20:58:37.958Z,100973.25
2023-01-10T21:01:04.543Z,100976.88
2023-01-10T21:03:31.237Z,100953.25
2023-01-10T21:05:59.386Z,100973.91
2023-01-10T21:08:26.963Z,100967.13
2023-01-10T21:10:53.415Z,100969.78
2023-01-10T21:13:19.884Z,100960.19
2023-01-10T21:15:47.356Z,100959.88
2023-01-10T21:18:15.764Z,100959.34
2023-01-10T21:20:43.830Z,100958.06
2023-01-10T21:23:10.793Z,100935.75
2023-01-10T21:25:37.620Z,100936.56
2023-01-10T21:28:09.404Z,100921.34
2023-01-10T21:30:37.318Z,100922.84
2023-01-10T21:33:04.376Z,100928.13
2023-01-10T21:35:31.040Z,100916.53
2023-01-10T21:37:57.630Z,100924.47
2023-01-10T21:40:25.238Z,100917.19
2023-01-10T21:42:52.570Z,100918.84
2023-01-10T21:45:21.112Z,100918.50
2023-01-10T21:47:49.060Z,100908.25
2023-01-10T21:50:17.276Z,100918.50
2023-01-10T21:52:44.456Z,100914.53
2023-01-10T21:55:14.475Z,100921.63
2023-01-10T21:57:41.053Z,100912.88
2023-01-10T22:00:08.406Z,100900.31
2023-01-10T22:02:35.419Z,100892.38
2023-01-10T22:05:01.980Z,100907.91
2023-01-10T22:07:29.237Z,100886.53
2023-01-10T22:09:55.784Z,100882.44
2023-01-10T22:12:24.429Z,100886.72
2023-01-10T22:14:51.194Z,100879.25
2023-01-10T22:17:17.879Z,100877.25
2023-01-10T22:19:44.425Z,100875.94
2023-01-10T22:22:11.652Z,100871.13
2023-01-10T22:24:38.963Z,100864.50
2023-01-10T22:27:05.475Z,100862.16
2023-01-10T22:29:32.138Z,100854.84
2023-01-10T22:31:58.690Z,100859.47
2023-01-10T22:34:25.450Z,100859.91
2023-01-10T22:36:51.910Z,100857.28
2023-01-10T22:39:18.484Z,100852.13
2023-01-10T22:41:44.976Z,100850.28
2023-01-10T22:44:23.335Z,100844.47
2023-01-10T22:46:51.488Z,100842.94
2023-01-10T22:49:18.475Z,100830.69
2023-01-10T22:51:45.051Z,100844.41
2023-01-10T22:54:13.247Z,100831.81
2023-01-10T22:56:39.711Z,100839.25
2023-01-10T22:59:06.279Z,100834.41
2023-01-10T23:01:33.134Z,100831.22
2023-01-10T23:03:59.716Z,100828.03
2023-01-10T23:06:26.300Z,100823.03
2023-01-10T23:08:52.813Z,100814.28
2023-01-10T23:11:21.288Z,100826.16
2023-01-10T23:13:48.516Z,100821.69
2023-01-10T23:16:20.111Z,100817.50
2023-01-10T23:18:48.516Z,100815.31
2023-01-10T23:21:15.337Z,100817.44
2023-01-10T23:23:41.816Z,100814.25
2023-01-10T23:26:11.383Z,100817.88
2023-01-10T23:28:40.868Z,100821.31
2023-01-10T23:31:07.594Z,100813.00
2023-01-10T23:33:34.618Z,100815.75
2023-01-10T23:36:01.507Z,100806.41
2023-01-10T23:38:28.583Z,100815.38
2023-01-10T23:40:55.730Z,100809.91
2023-01-10T23:43:22.912Z,100800.09
2023-01-10T23:45:49.566Z,100794.81
2023-01-10T23:48:16.716Z,100795.28
2023-01-10T23:50:43.266Z,100795.72
2023-01-10T23:53:09.798Z,100790.34
2023-01-10T23:55:36.362Z,100787.69
2023-01-10T23:58:02.859Z,100778.09
